Time,TemperatureF,DewpointF,PressureIn,WindDirection,WindDirectionDegrees,WindSpeedMPH,WindSpeedGustMPH,Humidity,HourlyPrecipIn,Conditions,Clouds,dailyrainin,SoftwareType,DateUTC
2013-01-21 00:01:00,20.3,10.4,30.46,NNW,335,1.0,5.0,65,0.00,CLR,SKC,0.00,WeatherDisplay:10.37,2013-01-21 06:01:00,
2013-01-21 00:06:00,20.1,10.6,30.46,NNW,336,0.0,3.0,66,0.00,CLR,SKC,0.00,WeatherDisplay:10.37,2013-01-21 06:06:00,
2013-01-21 00:11:00,19.9,10.4,30.45,NNW,333,3.0,7.0,66,0.00,CLR,SKC,0.00,WeatherDisplay:10.37,2013-01-21 06:11:00,
2013-01-21 00:16:00,19.7,10.6,30.45,NNW,333,3.0,10.0,67,0.00,CLR,SKC,0.00,WeatherDisplay:10.37,2013-01-21 06:16:00,
2013-01-21 00:21:00,19.7,10.5,30.45,NNW,343,3.0,7.0,67,0.00,CLR,SKC,0.00,WeatherDisplay:10.37,2013-01-21 06:21:00,
2013-01-21 00:26:00,19.7,10.5,30.45,North,1,6.0,16.0,67,0.00,CLR,SKC,0.00,WeatherDisplay:10.37,2013-01-21 06:26:00,
2013-01-21 00:31:00,19.7,10.5,30.45,North,8,10.0,13.0,67,0.00,CLR,SKC,0.00,WeatherDisplay:10.37,2013-01-21 06:31:00,
2013-01-21 00:36:00,19.7,10.5,30.45,NNW,347,8.0,15.0,67,0.00,CLR,SKC,0.00,WeatherDisplay:10.37,2013-01-21 06:36:00,
2013-01-21 00:41:00,19.6,10.4,30.45,NNW,336,3.0,8.0,67,0.00,CLR,SKC,0.00,WeatherDisplay:10.37,2013-01-21 06:41:00,
2013-01-21 00:46:00,19.6,10.4,30.46,North,0,13.0,22.0,67,0.00,CLR,SKC,0.00,WeatherDisplay:10.37,2013-01-21 06:46:00,
2013-01-21 00:51:00,19.6,10.4,30.46,North,5,20.0,24.0,67,0.00,CLR,SKC,0.00,WeatherDisplay:10.37,2013-01-21 06:51:00,
2013-01-21 00:56:00,19.6,10.4,30.46,North,3,9.0,16.0,67,0.00,CLR,SKC,0.00,WeatherDisplay:10.37,2013-01-21 06:56:00,
2013-01-21 01:06:00,19.4,10.6,30.46,North,11,8.0,22.0,68,0.00,CLR,SKC,0.00,WeatherDisplay:10.37,2013-01-21 07:06:00,
2013-01-21 01:11:00,19.3,10.5,30.46,North,5,7.0,24.0,68,0.00,CLR,SKC,0.00,WeatherDisplay:10.37,2013-01-21 07:11:00,
2013-01-21 01:16:00,19.2,10.7,30.47,North,9,10.0,18.0,69,0.00,CLR,SKC,0.00,WeatherDisplay:10.37,2013-01-21 07:16:00,
2013-01-21 01:21:00,19.1,10.6,30.47,North,1,10.0,21.0,69,0.00,CLR,SKC,0.00,WeatherDisplay:10.37,2013-01-21 07:21:00,
2013-01-21 01:26:00,19.0,10.5,30.47,North,355,15.0,18.0,69,0.00,CLR,SKC,0.00,WeatherDisplay:10.37,2013-01-21 07:26:00,
2013-01-21 01:31:00,18.9,10.4,30.47,North,1,9.0,17.0,69,0.00,CLR,SKC,0.00,WeatherDisplay:10.37,2013-01-21 07:31:00,
2013-01-21 01:36:00,18.9,10.7,30.47,NNE,13,10.0,21.0,70,0.00,CLR,SKC,0.00,WeatherDisplay:10.37,2013-01-21 07:36:00,
2013-01-21 01:41:00,18.8,10.6,30.46,North,6,13.0,21.0,70,0.00,CLR,SKC,0.00,WeatherDisplay:10.37,2013-01-21 07:41:00,
2013-01-21 01:46:00,18.6,10.5,30.46,North,7,9.0,15.0,70,0.00,CLR,SKC,0.00,WeatherDisplay:10.37,2013-01-21 07:46:00,
2013-01-21 01:51:00,18.5,10.7,30.46,NNE,17,10.0,19.0,71,0.00,CLR,SKC,0.00,WeatherDisplay:10.37,2013-01-21 07:51:00,
2013-01-21 02:01:00,18.4,10.6,30.46,North,10,17.0,28.0,71,0.00,CLR,SKC,0.00,WeatherDisplay:10.37,2013-01-21 08:01:00,
2013-01-21 02:16:00,18.2,10.4,30.48,NNE,20,14.0,20.0,71,0.00,CLR,SKC,0.00,WeatherDisplay:10.37,2013-01-21 08:16:00,
2013-01-21 02:21:00,18.1,10.3,30.48,North,5,12.0,18.0,71,0.00,CLR,SKC,0.00,WeatherDisplay:10.37,2013-01-21 08:21:00,
2013-01-21 02:26:00,18.1,10.3,30.48,North,358,10.0,13.0,71,0.00,CLR,SKC,0.00,WeatherDisplay:10.37,2013-01-21 08:26:00,
2013-01-21 02:36:00,17.8,10.3,30.48,North,2,5.0,10.0,72,0.00,CLR,SKC,0.00,WeatherDisplay:10.37,2013-01-21 08:36:00,
2013-01-21 02:41:00,17.7,10.2,30.49,North,358,7.0,8.0,72,0.00,CLR,SKC,0.00,WeatherDisplay:10.37,2013-01-21 08:41:00,
2013-01-21 02:46:00,17.6,10.4,30.49,North,351,2.0,6.0,73,0.00,CLR,SKC,0.00,WeatherDisplay:10.37,2013-01-21 08:46:00,
2013-01-21 02:51:00,17.4,10.2,30.49,NNW,343,3.0,10.0,73,0.00,CLR,SKC,0.00,WeatherDisplay:10.37,2013-01-21 08:51:00,
2013-01-21 03:06:00,17.0,10.2,30.49,North,350,0.0,3.0,74,0.00,CLR,SKC,0.00,WeatherDisplay:10.37,2013-01-21 09:06:00,
2013-01-21 03:11:00,16.8,10.3,30.50,NNW,338,0.0,5.0,75,0.00,CLR,SKC,0.00,WeatherDisplay:10.37,2013-01-21 09:11:00,
2013-01-21 03:16:00,16.6,10.1,30.50,NNW,339,0.0,0.0,75,0.00,CLR,SKC,0.00,WeatherDisplay:10.37,2013-01-21 09:16:00,
2013-01-21 03:26:00,16.3,10.1,30.49,NW,319,0.0,0.0,76,0.00,CLR,SKC,0.00,WeatherDisplay:10.37,2013-01-21 09:26:00,
2013-01-21 03:41:00,15.8,9.9,30.48,NNW,347,0.0,2.0,77,0.00,CLR,SKC,0.00,WeatherDisplay:10.37,2013-01-21 09:41:00,
2013-01-21 03:51:00,15.6,9.9,30.47,NNW,345,0.0,2.0,78,0.00,CLR,SKC,0.00,WeatherDisplay:10.37,2013-01-21 09:51:00,
2013-01-21 03:56:00,15.5,10.1,30.47,NNW,345,0.0,0.0,79,0.00,CLR,SKC,0.00,WeatherDisplay:10.37,2013-01-21 09:56:00,
2013-01-21 04:06:00,15.3,10.0,30.47,NNW,345,0.0,0.0,79,0.00,CLR,SKC,0.00,WeatherDisplay:10.37,2013-01-21 10:06:00,
2013-01-21 04:11:00,15.3,10.2,30.47,NNW,344,0.0,0.0,80,0.00,CLR,SKC,0.00,WeatherDisplay:10.37,2013-01-21 10:11:00,
2013-01-21 04:16:00,15.3,10.3,30.47,NNW,343,0.0,0.0,80,0.00,CLR,SKC,0.00,WeatherDisplay:10.37,2013-01-21 10:16:00,
2013-01-21 04:26:00,15.2,10.1,30.47,NNW,342,0.0,0.0,80,0.00,CLR,SKC,0.00,WeatherDisplay:10.37,2013-01-21 10:26:00,
2013-01-21 04:37:00,15.0,9.9,30.46,NNW,343,0.0,0.0,80,0.00,CLR,SKC,0.00,WeatherDisplay:10.37,2013-01-21 10:37:00,
2013-01-21 04:42:00,14.7,9.7,30.46,NNW,343,0.0,0.0,80,0.00,CLR,SKC,0.00,WeatherDisplay:10.37,2013-01-21 10:42:00,
2013-01-21 04:51:00,14.2,9.5,30.46,NNW,342,0.0,0.0,81,0.00,CLR,SKC,0.00,WeatherDisplay:10.37,2013-01-21 10:51:00,
2013-01-21 04:56:00,14.2,9.7,30.46,NNW,342,0.0,0.0,82,0.00,CLR,SKC,0.00,WeatherDisplay:10.37,2013-01-21 10:56:00,
2013-01-21 05:01:00,14.1,9.6,30.46,NNW,343,0.0,0.0,82,0.00,CLR,SKC,0.00,WeatherDisplay:10.37,2013-01-21 11:01:00,
2013-01-21 05:12:00,14.0,9.8,30.46,NNW,342,0.0,0.0,83,0.00,CLR,SKC,0.00,WeatherDisplay:10.37,2013-01-21 11:12:00,
2013-01-21 05:22:00,14.1,9.9,30.46,NNW,343,0.0,0.0,83,0.00,CLR,SKC,0.00,WeatherDisplay:10.37,2013-01-21 11:22:00,
2013-01-21 05:31:00,14.4,10.2,30.45,NNW,343,0.0,0.0,83,0.00,CLR,SKC,0.00,WeatherDisplay:10.37,2013-01-21 11:31:00,
2013-01-21 05:37:00,14.6,10.4,30.45,NNW,342,0.0,0.0,83,0.00,CLR,SKC,0.00,WeatherDisplay:10.37,2013-01-21 11:37:00,
2013-01-21 05:42:00,14.9,10.7,30.45,NNW,342,0.0,0.0,83,0.00,CLR,SKC,0.00,WeatherDisplay:10.37,2013-01-21 11:42:00,
2013-01-21 05:52:00,15.2,10.7,30.45,NNW,343,0.0,0.0,82,0.00,CLR,SKC,0.00,WeatherDisplay:10.37,2013-01-21 11:52:00,
2013-01-21 05:57:00,15.4,10.9,30.45,NNW,343,0.0,0.0,82,0.00,CLR,SKC,0.00,WeatherDisplay:10.37,2013-01-21 11:57:00,
2013-01-21 06:02:00,15.4,10.6,30.45,NNW,342,0.0,0.0,81,0.00,CLR,SKC,0.00,WeatherDisplay:10.37,2013-01-21 12:02:00,
2013-01-21 06:07:00,15.3,10.6,30.46,NNW,342,0.0,0.0,81,0.00,CLR,SKC,0.00,WeatherDisplay:10.37,2013-01-21 12:07:00,
2013-01-21 06:12:00,15.3,10.5,30.46,NNW,342,0.0,0.0,81,0.00,CLR,SKC,0.00,WeatherDisplay:10.37,2013-01-21 12:12:00,
2013-01-21 06:17:00,15.3,10.5,30.46,NNW,343,0.0,0.0,81,0.00,CLR,SKC,0.00,WeatherDisplay:10.37,2013-01-21 12:17:00,
2013-01-21 06:22:00,15.3,10.8,30.47,NNW,343,0.0,0.0,82,0.00,CLR,SKC,0.00,WeatherDisplay:10.37,2013-01-21 12:22:00,
2013-01-21 06:27:00,15.4,10.9,30.47,NNW,343,0.0,0.0,82,0.00,CLR,SKC,0.00,WeatherDisplay:10.37,2013-01-21 12:27:00,
2013-01-21 06:32:00,15.6,11.1,30.47,NNW,343,0.0,2.0,82,0.00,CLR,SKC,0.00,WeatherDisplay:10.37,2013-01-21 12:32:00,
2013-01-21 06:37:00,15.8,11.3,30.47,NNW,337,0.0,0.0,82,0.00,CLR,SKC,0.00,WeatherDisplay:10.37,2013-01-21 12:37:00,
2013-01-21 06:42:00,16.0,11.2,30.48,NNW,333,0.0,2.0,81,0.00,CLR,SKC,0.00,WeatherDisplay:10.37,2013-01-21 12:42:00,
2013-01-21 06:47:00,16.1,11.3,30.48,NNW,342,1.0,3.0,81,0.00,CLR,SKC,0.00,WeatherDisplay:10.37,2013-01-21 12:47:00,
2013-01-21 06:52:00,16.1,11.3,30.49,North,354,0.0,2.0,81,0.00,CLR,SKC,0.00,WeatherDisplay:10.37,2013-01-21 12:52:00,
2013-01-21 06:57:00,16.1,11.0,30.48,North,349,0.0,3.0,80,0.00,CLR,SKC,0.00,WeatherDisplay:10.37,2013-01-21 12:57:00,
2013-01-21 07:02:00,16.1,11.0,30.48,NW,325,0.0,2.0,80,0.00,CLR,SKC,0.00,WeatherDisplay:10.37,2013-01-21 13:02:00,
2013-01-21 07:12:00,16.1,11.3,30.48,NNW,337,0.0,2.0,81,0.00,CLR,SKC,0.00,WeatherDisplay:10.37,2013-01-21 13:12:00,
2013-01-21 07:17:00,16.2,11.4,30.49,North,355,3.0,7.0,81,0.00,CLR,SKC,0.00,WeatherDisplay:10.37,2013-01-21 13:17:00,
2013-01-21 07:22:00,16.2,11.4,30.49,North,355,6.0,10.0,81,0.00,CLR,SKC,0.00,WeatherDisplay:10.37,2013-01-21 13:22:00,
2013-01-21 07:32:00,15.8,11.0,30.49,North,353,2.0,7.0,81,0.00,CLR,SKC,0.00,WeatherDisplay:10.37,2013-01-21 13:32:00,
2013-01-21 07:42:00,15.5,11.0,30.49,NNW,347,0.0,5.0,82,0.00,CLR,SKC,0.00,WeatherDisplay:10.37,2013-01-21 13:42:00,
2013-01-21 07:47:00,15.4,10.9,30.48,NNW,344,1.0,5.0,82,0.00,CLR,SKC,0.00,WeatherDisplay:10.37,2013-01-21 13:47:00,
2013-01-21 07:52:00,15.5,11.0,30.48,North,7,8.0,12.0,82,0.00,CLR,SKC,0.00,WeatherDisplay:10.37,2013-01-21 13:52:00,
2013-01-21 07:57:00,15.6,11.1,30.49,NNW,341,5.0,10.0,82,0.00,CLR,SKC,0.00,WeatherDisplay:10.37,2013-01-21 13:57:00,
2013-01-21 08:02:00,15.8,11.0,30.49,North,8,7.0,12.0,81,0.00,CLR,SKC,0.00,WeatherDisplay:10.37,2013-01-21 14:02:00,
2013-01-21 08:07:00,15.9,11.1,30.49,North,359,2.0,5.0,81,0.00,CLR,SKC,0.00,WeatherDisplay:10.37,2013-01-21 14:07:00,
2013-01-21 08:12:00,16.2,11.4,30.49,North,6,7.0,8.0,81,0.00,CLR,SKC,0.00,WeatherDisplay:10.37,2013-01-21 14:12:00,
2013-01-21 08:17:00,16.3,11.2,30.49,NNE,15,8.0,10.0,80,0.00,CLR,SKC,0.00,WeatherDisplay:10.37,2013-01-21 14:17:00,
2013-01-21 08:22:00,16.5,11.1,30.49,NNE,18,10.0,13.0,79,0.00,CLR,SKC,0.00,WeatherDisplay:10.37,2013-01-21 14:22:00,
2013-01-21 08:32:00,16.9,11.5,30.50,North,7,2.0,10.0,79,0.00,CLR,SKC,0.00,WeatherDisplay:10.37,2013-01-21 14:32:00,
2013-01-21 08:37:00,17.1,11.7,30.50,North,358,1.0,3.0,79,0.00,CLR,SKC,0.00,WeatherDisplay:10.37,2013-01-21 14:37:00,
2013-01-21 08:42:00,17.1,11.4,30.50,NNW,341,1.0,7.0,78,0.00,CLR,SKC,0.00,WeatherDisplay:10.37,2013-01-21 14:42:00,
2013-01-21 08:47:00,17.0,11.3,30.50,NNW,347,2.0,7.0,78,0.00,CLR,SKC,0.00,WeatherDisplay:10.37,2013-01-21 14:47:00,
2013-01-21 08:52:00,17.1,11.4,30.50,NNW,343,3.0,10.0,78,0.00,CLR,SKC,0.00,WeatherDisplay:10.37,2013-01-21 14:52:00,
2013-01-21 08:57:00,17.2,11.8,30.50,NNW,334,1.0,9.0,79,0.00,CLR,SKC,0.00,WeatherDisplay:10.37,2013-01-21 14:57:00,
2013-01-21 09:02:00,17.3,11.6,30.50,NW,320,5.0,8.0,78,0.00,CLR,SKC,0.00,WeatherDisplay:10.37,2013-01-21 15:02:00,
2013-01-21 09:07:00,17.2,11.2,30.50,North,357,12.0,16.0,77,0.00,CLR,SKC,0.00,WeatherDisplay:10.37,2013-01-21 15:07:00,
2013-01-21 09:12:00,17.4,11.7,30.50,North,6,2.0,12.0,78,0.00,CLR,SKC,0.00,WeatherDisplay:10.37,2013-01-21 15:12:00,
2013-01-21 09:17:00,17.5,11.5,30.51,North,353,3.0,7.0,77,0.00,CLR,SKC,0.00,WeatherDisplay:10.37,2013-01-21 15:17:00,
2013-01-21 09:22:00,17.6,11.6,30.51,North,0,6.0,10.0,77,0.00,CLR,SKC,0.00,WeatherDisplay:10.37,2013-01-21 15:22:00,
2013-01-21 09:27:00,17.7,11.4,30.51,NNW,347,5.0,7.0,76,0.00,CLR,SKC,0.00,WeatherDisplay:10.37,2013-01-21 15:27:00,
2013-01-21 09:32:00,17.8,11.5,30.51,North,358,12.0,15.0,76,0.00,CLR,SKC,0.00,WeatherDisplay:10.37,2013-01-21 15:32:00,
2013-01-21 09:37:00,17.9,11.6,30.52,NNW,344,5.0,9.0,76,0.00,CLR,SKC,0.00,WeatherDisplay:10.37,2013-01-21 15:37:00,
2013-01-21 09:42:00,18.2,11.6,30.52,NW,321,3.0,8.0,75,0.00,CLR,SKC,0.00,WeatherDisplay:10.37,2013-01-21 15:42:00,
2013-01-21 09:47:00,18.3,11.4,30.52,NW,315,2.0,7.0,74,0.00,CLR,SKC,0.00,WeatherDisplay:10.37,2013-01-21 15:47:00,
2013-01-21 09:52:00,18.4,11.5,30.52,NNW,337,5.0,8.0,74,0.00,CLR,SKC,0.00,WeatherDisplay:10.37,2013-01-21 15:52:00,
2013-01-21 09:57:00,18.4,11.5,30.52,NNW,339,3.0,8.0,74,0.00,CLR,SKC,0.00,WeatherDisplay:10.37,2013-01-21 15:57:00,
2013-01-21 10:07:00,18.6,11.7,30.52,North,7,9.0,13.0,74,0.00,CLR,SKC,0.00,WeatherDisplay:10.37,2013-01-21 16:07:00,
2013-01-21 10:12:00,18.8,11.3,30.52,NNW,332,2.0,13.0,72,0.00,CLR,SKC,0.00,WeatherDisplay:10.37,2013-01-21 16:12:00,
2013-01-21 10:22:00,19.0,10.2,30.52,NNW,344,12.0,15.0,68,0.00,CLR,SKC,0.00,WeatherDisplay:10.37,2013-01-21 16:22:00,
2013-01-21 10:27:00,19.0,10.2,30.52,North,2,16.0,20.0,68,0.00,CLR,SKC,0.00,WeatherDisplay:10.37,2013-01-21 16:27:00,
2013-01-21 10:32:00,19.0,9.9,30.51,North,11,6.0,20.0,67,0.00,CLR,SKC,0.00,WeatherDisplay:10.37,2013-01-21 16:32:00,
2013-01-21 10:37:00,19.0,10.2,30.52,NNE,13,6.0,16.0,68,0.00,CLR,SKC,0.00,WeatherDisplay:10.37,2013-01-21 16:37:00,
2013-01-21 10:42:00,19.3,10.1,30.51,North,8,6.0,15.0,67,0.00,CLR,SKC,0.00,WeatherDisplay:10.37,2013-01-21 16:42:00,
2013-01-21 10:52:00,19.3,9.5,30.52,NNE,13,18.0,24.0,65,0.00,CLR,SKC,0.00,WeatherDisplay:10.37,2013-01-21 16:52:00,
2013-01-21 10:57:00,19.3,9.5,30.52,NNW,327,5.0,13.0,65,0.00,CLR,SKC,0.00,WeatherDisplay:10.37,2013-01-21 16:57:00,
2013-01-21 11:02:00,19.3,9.1,30.52,NNW,340,9.0,21.0,64,0.00,CLR,SKC,0.00,WeatherDisplay:10.37,2013-01-21 17:02:00,
2013-01-21 11:12:00,19.9,10.1,30.52,North,360,6.0,13.0,65,0.00,CLR,SKC,0.00,WeatherDisplay:10.37,2013-01-21 17:12:00,
2013-01-21 11:17:00,19.9,9.7,30.52,North,356,8.0,22.0,64,0.00,CLR,SKC,0.00,WeatherDisplay:10.37,2013-01-21 17:17:00,
2013-01-21 11:22:00,20.1,9.8,30.52,NNW,335,5.0,13.0,64,0.00,CLR,SKC,0.00,WeatherDisplay:10.37,2013-01-21 17:22:00,
2013-01-21 11:27:00,20.3,9.7,30.52,NW,321,5.0,13.0,63,0.00,CLR,SKC,0.00,WeatherDisplay:10.37,2013-01-21 17:27:00,
2013-01-21 11:32:00,20.1,9.2,30.53,NNW,347,7.0,21.0,62,0.00,CLR,SKC,0.00,WeatherDisplay:10.37,2013-01-21 17:32:00,
2013-01-21 11:37:00,20.0,9.4,30.52,North,354,3.0,18.0,63,0.00,CLR,SKC,0.00,WeatherDisplay:10.37,2013-01-21 17:37:00,
2013-01-21 11:42:00,20.0,9.4,30.53,NNW,343,16.0,21.0,63,0.00,CLR,SKC,0.00,WeatherDisplay:10.37,2013-01-21 17:42:00,
2013-01-21 11:47:00,20.2,10.0,30.52,NNW,330,1.0,13.0,64,0.00,CLR,SKC,0.00,WeatherDisplay:10.37,2013-01-21 17:47:00,
2013-01-21 11:52:00,20.4,9.8,30.52,NW,320,5.0,11.0,63,0.00,CLR,SKC,0.00,WeatherDisplay:10.37,2013-01-21 17:52:00,
2013-01-21 11:57:00,20.5,9.9,30.51,NNW,339,2.0,21.0,63,0.00,CLR,SKC,0.00,WeatherDisplay:10.37,2013-01-21 17:57:00,
2013-01-21 12:02:00,20.7,9.0,30.50,NNW,343,9.0,15.0,60,0.00,CLR,SKC,0.00,WeatherDisplay:10.37,2013-01-21 18:02:00,
2013-01-21 12:07:00,20.6,9.7,30.50,NNW,344,6.0,15.0,62,0.00,CLR,SKC,0.00,WeatherDisplay:10.37,2013-01-21 18:07:00,
2013-01-21 12:12:00,21.2,9.4,30.50,NNW,346,3.0,12.0,60,0.00,CLR,SKC,0.00,WeatherDisplay:10.37,2013-01-21 18:12:00,
2013-01-21 12:17:00,21.4,8.5,30.50,NNW,343,6.0,12.0,57,0.00,CLR,SKC,0.00,WeatherDisplay:10.37,2013-01-21 18:17:00,
2013-01-21 12:22:00,21.2,8.3,30.49,North,351,15.0,16.0,57,0.00,CLR,SKC,0.00,WeatherDisplay:10.37,2013-01-21 18:22:00,
2013-01-21 12:27:00,21.2,6.7,30.50,North,3,14.0,18.0,53,0.00,CLR,SKC,0.00,WeatherDisplay:10.37,2013-01-21 18:27:00,
2013-01-21 12:32:00,21.1,4.4,30.50,North,7,18.0,24.0,48,0.00,CLR,SKC,0.00,WeatherDisplay:10.37,2013-01-21 18:32:00,
2013-01-21 12:37:00,21.1,5.3,30.49,NNW,336,8.0,15.0,50,0.00,CLR,SKC,0.00,WeatherDisplay:10.37,2013-01-21 18:37:00,
2013-01-21 12:42:00,21.3,4.6,30.49,NNW,335,6.0,13.0,48,0.00,CLR,SKC,0.00,WeatherDisplay:10.37,2013-01-21 18:42:00,
2013-01-21 12:52:00,21.5,2.0,30.50,NW,326,12.0,21.0,42,0.00,CLR,SKC,0.00,WeatherDisplay:10.37,2013-01-21 18:52:00,
2013-01-21 13:02:00,21.3,1.2,30.49,NNW,340,5.0,10.0,41,0.00,CLR,SKC,0.00,WeatherDisplay:10.37,2013-01-21 19:02:00,
2013-01-21 13:07:00,21.4,1.9,30.49,NW,324,6.0,13.0,42,0.00,CLR,SKC,0.00,WeatherDisplay:10.37,2013-01-21 19:07:00,
2013-01-21 13:12:00,21.4,2.4,30.50,NW,317,8.0,15.0,43,0.00,CLR,SKC,0.00,WeatherDisplay:10.37,2013-01-21 19:12:00,
2013-01-21 13:17:00,21.4,2.3,30.50,NNW,345,9.0,26.0,43,0.00,CLR,SKC,0.00,WeatherDisplay:10.37,2013-01-21 19:17:00,
2013-01-21 13:22:00,21.1,1.6,30.49,North,358,13.0,25.0,42,0.00,CLR,SKC,0.00,WeatherDisplay:10.37,2013-01-21 19:22:00,
2013-01-21 13:27:00,21.5,2.4,30.49,North,6,8.0,12.0,43,0.00,CLR,SKC,0.00,WeatherDisplay:10.37,2013-01-21 19:27:00,
2013-01-21 13:32:00,21.3,1.7,30.49,NNW,346,5.0,18.0,42,0.00,CLR,SKC,0.00,WeatherDisplay:10.37,2013-01-21 19:32:00,
2013-01-21 13:37:00,21.0,0.9,30.49,NNW,335,8.0,13.0,41,0.00,CLR,SKC,0.00,WeatherDisplay:10.37,2013-01-21 19:37:00,
2013-01-21 13:42:00,21.0,1.5,30.49,NNW,329,7.0,15.0,42,0.00,CLR,SKC,0.00,WeatherDisplay:10.37,2013-01-21 19:42:00,
2013-01-21 13:52:00,20.9,1.4,30.49,WNW,285,6.0,10.0,42,0.00,CLR,SKC,0.00,WeatherDisplay:10.37,2013-01-21 19:52:00,
2013-01-21 13:57:00,20.9,1.4,30.48,NW,312,6.0,13.0,42,0.00,CLR,SKC,0.00,WeatherDisplay:10.37,2013-01-21 19:57:00,
2013-01-21 14:02:00,20.6,1.6,30.49,NW,323,3.0,13.0,43,0.00,CLR,SKC,0.00,WeatherDisplay:10.37,2013-01-21 20:02:00,
2013-01-21 14:12:00,20.3,1.3,30.49,North,356,14.0,22.0,43,0.00,CLR,SKC,0.00,WeatherDisplay:10.37,2013-01-21 20:12:00,
2013-01-21 14:17:00,20.1,1.2,30.49,North,351,10.0,21.0,43,0.00,CLR,SKC,0.00,WeatherDisplay:10.37,2013-01-21 20:17:00,
2013-01-21 14:22:00,20.0,1.6,30.49,NNW,341,3.0,20.0,44,0.00,CLR,SKC,0.00,WeatherDisplay:10.37,2013-01-21 20:22:00,
2013-01-21 14:27:00,20.2,1.3,30.49,NNW,338,3.0,7.0,43,0.00,CLR,SKC,0.00,WeatherDisplay:10.37,2013-01-21 20:27:00,
2013-01-21 14:32:00,20.3,1.3,30.49,NNW,343,3.0,7.0,43,0.00,CLR,SKC,0.00,WeatherDisplay:10.37,2013-01-21 20:32:00,
2013-01-21 14:42:00,20.3,1.8,30.48,NW,314,0.0,5.0,44,0.00,CLR,SKC,0.00,WeatherDisplay:10.37,2013-01-21 20:42:00,
2013-01-21 14:47:00,20.5,2.0,30.49,NNW,345,3.0,16.0,44,0.00,CLR,SKC,0.00,WeatherDisplay:10.37,2013-01-21 20:47:00,
2013-01-21 14:52:00,20.3,1.9,30.49,North,351,3.0,13.0,44,0.00,CLR,SKC,0.00,WeatherDisplay:10.37,2013-01-21 20:52:00,
2013-01-21 14:57:00,20.3,2.3,30.49,NNW,335,5.0,13.0,45,0.00,CLR,SKC,0.00,WeatherDisplay:10.37,2013-01-21 20:57:00,
2013-01-21 15:02:00,20.4,2.4,30.48,NW,323,5.0,7.0,45,0.00,CLR,SKC,0.00,WeatherDisplay:10.37,2013-01-21 21:02:00,
2013-01-21 15:07:00,20.3,2.3,30.48,NW,311,3.0,13.0,45,0.00,CLR,SKC,0.00,WeatherDisplay:10.37,2013-01-21 21:07:00,
2013-01-21 15:12:00,20.3,2.3,30.48,NW,322,5.0,13.0,45,0.00,CLR,SKC,0.00,WeatherDisplay:10.37,2013-01-21 21:12:00,
2013-01-21 15:22:00,20.0,2.5,30.48,NW,325,9.0,12.0,46,0.00,CLR,SKC,0.00,WeatherDisplay:10.37,2013-01-21 21:22:00,
2013-01-21 15:27:00,20.1,3.1,30.48,NNW,329,2.0,8.0,47,0.00,CLR,SKC,0.00,WeatherDisplay:10.37,2013-01-21 21:27:00,
2013-01-21 15:32:00,20.3,2.8,30.48,NW,320,5.0,7.0,46,0.00,CLR,SKC,0.00,WeatherDisplay:10.37,2013-01-21 21:32:00,
2013-01-21 15:42:00,19.9,2.4,30.48,NW,316,3.0,7.0,46,0.00,CLR,SKC,0.00,WeatherDisplay:10.37,2013-01-21 21:42:00,
2013-01-21 15:47:00,20.0,2.9,30.47,NNW,342,5.0,7.0,47,0.00,CLR,SKC,0.00,WeatherDisplay:10.37,2013-01-21 21:47:00,
2013-01-21 15:52:00,20.0,3.0,30.48,NW,316,3.0,8.0,47,0.00,CLR,SKC,0.00,WeatherDisplay:10.37,2013-01-21 21:52:00,
2013-01-21 15:57:00,19.8,2.8,30.47,NNW,328,5.0,10.0,47,0.00,CLR,SKC,0.00,WeatherDisplay:10.37,2013-01-21 21:57:00,
2013-01-21 16:02:00,19.7,2.7,30.47,NW,319,2.0,5.0,47,0.00,CLR,SKC,0.00,WeatherDisplay:10.37,2013-01-21 22:02:00,
2013-01-21 16:07:00,19.6,2.6,30.47,NW,310,7.0,8.0,47,0.00,CLR,SKC,0.00,WeatherDisplay:10.37,2013-01-21 22:07:00,
2013-01-21 16:12:00,19.3,2.8,30.47,NW,323,5.0,10.0,48,0.00,CLR,SKC,0.00,WeatherDisplay:10.37,2013-01-21 22:12:00,
2013-01-21 16:17:00,19.2,2.7,30.47,WNW,302,3.0,8.0,48,0.00,CLR,SKC,0.00,WeatherDisplay:10.37,2013-01-21 22:17:00,
2013-01-21 16:22:00,19.0,2.5,30.47,WNW,289,2.0,5.0,48,0.00,CLR,SKC,0.00,WeatherDisplay:10.37,2013-01-21 22:22:00,
2013-01-21 16:32:00,19.0,3.0,30.48,NW,317,3.0,10.0,49,0.00,CLR,SKC,0.00,WeatherDisplay:10.37,2013-01-21 22:32:00,
2013-01-21 16:37:00,19.0,2.9,30.47,NNW,333,6.0,13.0,49,0.00,CLR,SKC,0.00,WeatherDisplay:10.37,2013-01-21 22:37:00,
2013-01-21 16:42:00,18.9,2.9,30.48,North,8,2.0,11.0,49,0.00,CLR,SKC,0.00,WeatherDisplay:10.37,2013-01-21 22:42:00,
2013-01-21 16:47:00,18.9,2.9,30.48,NNE,15,5.0,13.0,49,0.00,CLR,SKC,0.00,WeatherDisplay:10.37,2013-01-21 22:47:00,
2013-01-21 16:52:00,19.0,3.4,30.48,NNW,342,5.0,8.0,50,0.00,CLR,SKC,0.00,WeatherDisplay:10.37,2013-01-21 22:52:00,
2013-01-21 17:02:00,18.6,2.6,30.47,NNW,329,1.0,5.0,49,0.00,CLR,SKC,0.00,WeatherDisplay:10.37,2013-01-21 23:02:00,
2013-01-21 17:07:00,18.6,3.0,30.47,North,350,1.0,8.0,50,0.00,CLR,SKC,0.00,WeatherDisplay:10.37,2013-01-21 23:07:00,
2013-01-21 17:12:00,18.6,2.6,30.47,NNW,340,2.0,3.0,49,0.00,CLR,SKC,0.00,WeatherDisplay:10.37,2013-01-21 23:12:00,
2013-01-21 17:17:00,18.7,3.1,30.47,NW,320,2.0,3.0,50,0.00,CLR,SKC,0.00,WeatherDisplay:10.37,2013-01-21 23:17:00,
2013-01-21 17:22:00,18.7,3.1,30.47,North,357,2.0,5.0,50,0.00,CLR,SKC,0.00,WeatherDisplay:10.37,2013-01-21 23:22:00,
2013-01-21 17:27:00,18.6,3.0,30.47,North,1,0.0,3.0,50,0.00,CLR,SKC,0.00,WeatherDisplay:10.37,2013-01-21 23:27:00,
2013-01-21 17:32:00,18.5,2.9,30.47,North,6,3.0,8.0,50,0.00,CLR,SKC,0.00,WeatherDisplay:10.37,2013-01-21 23:32:00,
2013-01-21 17:37:00,18.5,2.9,30.47,North,355,2.0,7.0,50,0.00,CLR,SKC,0.00,WeatherDisplay:10.37,2013-01-21 23:37:00,
2013-01-21 17:42:00,18.4,2.9,30.47,NNW,346,0.0,2.0,50,0.00,CLR,SKC,0.00,WeatherDisplay:10.37,2013-01-21 23:42:00,
2013-01-21 17:52:00,18.4,3.3,30.47,North,2,7.0,13.0,51,0.00,CLR,SKC,0.00,WeatherDisplay:10.37,2013-01-21 23:52:00,
2013-01-21 17:57:00,18.4,3.7,30.46,NNW,347,1.0,7.0,52,0.00,CLR,SKC,0.00,WeatherDisplay:10.37,2013-01-21 23:57:00,
2013-01-21 18:02:00,18.4,3.7,30.46,North,9,8.0,12.0,52,0.00,CLR,SKC,0.00,WeatherDisplay:10.37,2013-01-22 00:02:00,
2013-01-21 18:07:00,18.2,3.5,30.47,North,4,9.0,12.0,52,0.00,CLR,SKC,0.00,WeatherDisplay:10.37,2013-01-22 00:07:00,
2013-01-21 18:12:00,18.1,3.4,30.47,North,358,2.0,9.0,52,0.00,CLR,SKC,0.00,WeatherDisplay:10.37,2013-01-22 00:12:00,
2013-01-21 18:17:00,18.1,3.8,30.47,North,357,5.0,8.0,53,0.00,CLR,SKC,0.00,WeatherDisplay:10.37,2013-01-22 00:17:00,
2013-01-21 18:22:00,18.0,3.7,30.47,NNE,20,7.0,13.0,53,0.00,CLR,SKC,0.00,WeatherDisplay:10.37,2013-01-22 00:22:00,
2013-01-21 18:27:00,18.0,3.7,30.47,NNE,13,3.0,12.0,53,0.00,CLR,SKC,0.00,WeatherDisplay:10.37,2013-01-22 00:27:00,
2013-01-21 18:32:00,18.0,3.7,30.47,North,9,0.0,3.0,53,0.00,CLR,SKC,0.00,WeatherDisplay:10.37,2013-01-22 00:32:00,
2013-01-21 18:37:00,17.9,3.6,30.47,NW,322,1.0,3.0,53,0.00,CLR,SKC,0.00,WeatherDisplay:10.37,2013-01-22 00:37:00,
2013-01-21 18:42:00,17.8,3.6,30.47,NNW,339,1.0,2.0,53,0.00,CLR,SKC,0.00,WeatherDisplay:10.37,2013-01-22 00:42:00,
2013-01-21 18:47:00,17.7,3.9,30.47,North,1,1.0,5.0,54,0.00,CLR,SKC,0.00,WeatherDisplay:10.37,2013-01-22 00:47:00,
2013-01-21 18:57:00,17.4,3.6,30.47,North,352,1.0,5.0,54,0.00,CLR,SKC,0.00,WeatherDisplay:10.37,2013-01-22 00:57:00,
2013-01-21 19:02:00,17.3,3.9,30.47,North,354,0.0,2.0,55,0.00,CLR,SKC,0.00,WeatherDisplay:10.37,2013-01-22 01:02:00,
2013-01-21 19:07:00,17.1,3.7,30.46,NNW,348,0.0,3.0,55,0.00,CLR,SKC,0.00,WeatherDisplay:10.37,2013-01-22 01:07:00,
2013-01-21 19:12:00,17.1,3.7,30.46,NNW,340,0.0,2.0,55,0.00,CLR,SKC,0.00,WeatherDisplay:10.37,2013-01-22 01:12:00,
2013-01-21 19:17:00,17.0,4.0,30.46,NNW,342,0.0,2.0,56,0.00,CLR,SKC,0.00,WeatherDisplay:10.37,2013-01-22 01:17:00,
2013-01-21 19:22:00,16.9,3.9,30.46,North,349,0.0,1.0,56,0.00,CLR,SKC,0.00,WeatherDisplay:10.37,2013-01-22 01:22:00,
2013-01-21 19:27:00,16.9,3.9,30.46,North,352,2.0,3.0,56,0.00,CLR,SKC,0.00,WeatherDisplay:10.37,2013-01-22 01:27:00,
2013-01-21 19:32:00,16.9,3.9,30.46,North,359,1.0,3.0,56,0.00,CLR,SKC,0.00,WeatherDisplay:10.37,2013-01-22 01:32:00,
2013-01-21 19:37:00,16.9,3.9,30.45,North,359,0.0,7.0,56,0.00,CLR,SKC,0.00,WeatherDisplay:10.37,2013-01-22 01:37:00,
2013-01-21 19:42:00,16.9,3.9,30.46,North,357,0.0,2.0,56,0.00,CLR,SKC,0.00,WeatherDisplay:10.37,2013-01-22 01:42:00,
2013-01-21 19:47:00,16.9,3.9,30.46,North,357,0.0,2.0,56,0.00,CLR,SKC,0.00,WeatherDisplay:10.37,2013-01-22 01:47:00,
2013-01-21 19:52:00,16.9,3.9,30.46,WNW,300,0.0,2.0,56,0.00,CLR,SKC,0.00,WeatherDisplay:10.37,2013-01-22 01:52:00,
2013-01-21 19:57:00,16.9,4.3,30.46,NW,305,0.0,0.0,57,0.00,CLR,SKC,0.00,WeatherDisplay:10.37,2013-01-22 01:57:00,
2013-01-21 20:02:00,16.9,4.3,30.46,NNW,340,0.0,2.0,57,0.00,CLR,SKC,0.00,WeatherDisplay:10.37,2013-01-22 02:02:00,
2013-01-21 20:12:00,16.9,4.3,30.47,North,352,1.0,2.0,57,0.00,CLR,SKC,0.00,WeatherDisplay:10.37,2013-01-22 02:12:00,
2013-01-21 20:17:00,17.0,4.4,30.46,NNE,18,0.0,2.0,57,0.00,CLR,SKC,0.00,WeatherDisplay:10.37,2013-01-22 02:17:00,
2013-01-21 20:22:00,17.0,4.8,30.46,NNE,17,0.0,0.0,58,0.00,CLR,SKC,0.00,WeatherDisplay:10.37,2013-01-22 02:22:00,
2013-01-21 20:27:00,17.1,4.5,30.46,NNW,335,0.0,2.0,57,0.00,CLR,SKC,0.00,WeatherDisplay:10.37,2013-01-22 02:27:00,
2013-01-21 20:32:00,17.1,4.5,30.47,NNW,334,1.0,5.0,57,0.00,CLR,SKC,0.00,WeatherDisplay:10.37,2013-01-22 02:32:00,
2013-01-21 20:37:00,17.1,4.5,30.47,North,349,3.0,7.0,57,0.00,CLR,SKC,0.00,WeatherDisplay:10.37,2013-01-22 02:37:00,
2013-01-21 20:42:00,17.1,4.5,30.47,North,354,1.0,7.0,57,0.00,CLR,SKC,0.00,WeatherDisplay:10.37,2013-01-22 02:42:00,
2013-01-21 20:47:00,17.0,4.4,30.47,North,355,2.0,8.0,57,0.00,CLR,SKC,0.00,WeatherDisplay:10.37,2013-01-22 02:47:00,
2013-01-21 20:52:00,17.0,4.4,30.47,North,4,6.0,8.0,57,0.00,CLR,SKC,0.00,WeatherDisplay:10.37,2013-01-22 02:52:00,
2013-01-21 20:57:00,16.9,4.3,30.47,North,2,1.0,5.0,57,0.00,CLR,SKC,0.00,WeatherDisplay:10.37,2013-01-22 02:57:00,
2013-01-21 21:02:00,17.0,4.4,30.47,North,355,2.0,8.0,57,0.00,CLR,SKC,0.00,WeatherDisplay:10.37,2013-01-22 03:02:00,
2013-01-21 21:07:00,17.0,4.4,30.47,North,355,3.0,8.0,57,0.00,CLR,SKC,0.00,WeatherDisplay:10.37,2013-01-22 03:07:00,
2013-01-21 21:12:00,17.0,4.3,30.47,North,360,5.0,8.0,57,0.00,CLR,SKC,0.00,WeatherDisplay:10.37,2013-01-22 03:12:00,
2013-01-21 21:17:00,16.9,4.3,30.47,North,6,6.0,10.0,57,0.00,CLR,SKC,0.00,WeatherDisplay:10.37,2013-01-22 03:17:00,
2013-01-21 21:22:00,17.0,4.8,30.47,North,10,5.0,8.0,58,0.00,CLR,SKC,0.00,WeatherDisplay:10.37,2013-01-22 03:22:00,
2013-01-21 21:27:00,17.0,4.4,30.47,North,359,2.0,8.0,57,0.00,CLR,SKC,0.00,WeatherDisplay:10.37,2013-01-22 03:27:00,
2013-01-21 21:32:00,17.0,4.4,30.47,North,11,5.0,7.0,57,0.00,CLR,SKC,0.00,WeatherDisplay:10.37,2013-01-22 03:32:00,
2013-01-21 21:37:00,17.1,4.5,30.47,North,8,7.0,7.0,57,0.00,CLR,SKC,0.00,WeatherDisplay:10.37,2013-01-22 03:37:00,
2013-01-21 21:42:00,17.1,4.5,30.48,North,355,1.0,7.0,57,0.00,CLR,SKC,0.00,WeatherDisplay:10.37,2013-01-22 03:42:00,
2013-01-21 21:47:00,17.1,4.5,30.48,North,359,9.0,10.0,57,0.00,CLR,SKC,0.00,WeatherDisplay:10.37,2013-01-22 03:47:00,
2013-01-21 21:52:00,17.1,4.5,30.47,NNE,13,3.0,8.0,57,0.00,CLR,SKC,0.00,WeatherDisplay:10.37,2013-01-22 03:52:00,
2013-01-21 21:57:00,17.2,4.6,30.47,North,3,6.0,8.0,57,0.00,CLR,SKC,0.00,WeatherDisplay:10.37,2013-01-22 03:57:00,
2013-01-21 22:02:00,17.2,4.2,30.47,North,10,8.0,8.0,56,0.00,CLR,SKC,0.00,WeatherDisplay:10.37,2013-01-22 04:02:00,
2013-01-21 22:07:00,17.3,4.7,30.47,North,9,0.0,8.0,57,0.00,CLR,SKC,0.00,WeatherDisplay:10.37,2013-01-22 04:07:00,
2013-01-21 22:12:00,17.4,4.8,30.48,North,10,2.0,7.0,57,0.00,CLR,SKC,0.00,WeatherDisplay:10.37,2013-01-22 04:12:00,
2013-01-21 22:17:00,17.4,4.8,30.48,NNE,27,5.0,10.0,57,0.00,CLR,SKC,0.00,WeatherDisplay:10.37,2013-01-22 04:17:00,
2013-01-21 22:22:00,17.5,4.8,30.48,NNE,21,5.0,7.0,57,0.00,CLR,SKC,0.00,WeatherDisplay:10.37,2013-01-22 04:22:00,
2013-01-21 22:27:00,17.5,4.8,30.48,NNE,21,1.0,7.0,57,0.00,CLR,SKC,0.00,WeatherDisplay:10.37,2013-01-22 04:27:00,
2013-01-21 22:32:00,17.5,4.9,30.48,NNE,15,1.0,10.0,57,0.00,CLR,SKC,0.00,WeatherDisplay:10.37,2013-01-22 04:32:00,
2013-01-21 22:42:00,17.5,4.8,30.48,NNE,14,1.0,3.0,57,0.00,CLR,SKC,0.00,WeatherDisplay:10.37,2013-01-22 04:42:00,
2013-01-21 22:52:00,17.5,5.2,30.48,North,8,1.0,10.0,58,0.00,CLR,SKC,0.00,WeatherDisplay:10.37,2013-01-22 04:52:00,
2013-01-21 22:57:00,17.5,5.2,30.47,North,356,3.0,12.0,58,0.00,CLR,SKC,0.00,WeatherDisplay:10.37,2013-01-22 04:57:00,
2013-01-21 23:07:00,17.4,5.1,30.48,North,7,6.0,8.0,58,0.00,CLR,SKC,0.00,WeatherDisplay:10.37,2013-01-22 05:07:00,
2013-01-21 23:12:00,17.3,5.1,30.48,NNE,21,3.0,5.0,58,0.00,CLR,SKC,0.00,WeatherDisplay:10.37,2013-01-22 05:12:00,
2013-01-21 23:17:00,17.4,5.1,30.47,NNE,19,5.0,8.0,58,0.00,CLR,SKC,0.00,WeatherDisplay:10.37,2013-01-22 05:17:00,
2013-01-21 23:27:00,17.4,5.1,30.47,North,2,2.0,5.0,58,0.00,CLR,SKC,0.00,WeatherDisplay:10.37,2013-01-22 05:27:00,
2013-01-21 23:32:00,17.3,5.4,30.47,NNE,19,3.0,8.0,59,0.00,CLR,SKC,0.00,WeatherDisplay:10.37,2013-01-22 05:32:00,
2013-01-21 23:37:00,17.3,5.4,30.47,NNE,29,6.0,7.0,59,0.00,CLR,SKC,0.00,WeatherDisplay:10.37,2013-01-22 05:37:00,
2013-01-21 23:42:00,17.2,5.3,30.46,NNE,25,1.0,5.0,59,0.00,CLR,SKC,0.00,WeatherDisplay:10.37,2013-01-22 05:42:00,
2013-01-21 23:47:00,17.2,5.3,30.46,NNE,16,7.0,8.0,59,0.00,CLR,SKC,0.00,WeatherDisplay:10.37,2013-01-22 05:47:00,
2013-01-21 23:52:00,17.1,5.2,30.46,NNE,18,3.0,8.0,59,0.00,CLR,SKC,0.00,WeatherDisplay:10.37,2013-01-22 05:52:00,
2013-01-21 23:57:00,17.1,5.6,30.46,NNE,20,3.0,7.0,60,0.00,CLR,SKC,0.00,WeatherDisplay:10.37,2013-01-22 05:57:00,